createdAt,value
2023-03-02T02:48:31.040Z,94927.00
2023-03-02T02:49:31.045Z,94933.00
2023-03-02T02:50:30.589Z,94935.00
2023-03-02T02:51:30.563Z,94931.00
2023-03-02T02:52:30.505Z,94927.00
2023-03-02T02:53:31.506Z,94927.00
2023-03-02T02:54:30.503Z,94925.00
2023-03-02T02:55:30.496Z,94921.00
2023-03-02T02:56:30.728Z,94921.00
2023-03-02T02:57:30.494Z,94921.00
2023-03-02T02:58:30.524Z,94923.00
2023-03-02T02:59:30.550Z,94923.00
2023-03-02T03:00:30.660Z,94921.00
2023-03-02T03:01:30.638Z,94923.00
2023-03-02T03:02:30.611Z,94923.00
2023-03-02T03:03:30.695Z,94921.00
2023-03-02T03:04:30.886Z,94921.00
2023-03-02T03:05:30.799Z,94921.00
2023-03-02T03:06:31.169Z,94923.00
2023-03-02T03:07:30.798Z,94921.00
2023-03-02T03:08:30.912Z,94923.00
2023-03-02T03:09:30.966Z,94921.00
2023-03-02T03:10:31.985Z,94919.00
2023-03-02T03:11:31.000Z,94915.00
2023-03-02T03:12:31.195Z,94915.00
2023-03-02T03:13:31.157Z,94913.00
2023-03-02T03:14:31.214Z,94911.00
2023-03-02T03:15:31.220Z,94911.00
2023-03-02T03:16:31.857Z,94909.00
2023-03-02T03:17:31.239Z,94913.00
2023-03-02T03:18:31.272Z,94913.00
2023-03-02T03:19:31.444Z,94913.00
2023-03-02T03:20:31.365Z,94911.00
2023-03-02T03:21:31.433Z,94911.00
2023-03-02T03:22:31.514Z,94911.00
2023-03-02T03:23:31.565Z,94913.00
2023-03-02T03:24:31.536Z,94917.00
2023-03-02T03:25:31.582Z,94913.00
2023-03-02T03:26:31.871Z,94911.00
2023-03-02T03:27:31.694Z,94909.00
2023-03-02T05:48:23.204Z,94921.00
2023-03-02T05:49:23.088Z,94919.00
2023-03-02T05:50:23.074Z,94919.00
2023-03-02T05:51:23.104Z,94917.00
2023-03-02T05:52:23.059Z,94915.00
2023-03-02T05:53:23.033Z,94917.00
2023-03-02T05:54:23.039Z,94919.00
2023-03-02T05:55:24.059Z,94915.00
2023-03-02T05:56:23.058Z,94913.00
2023-03-02T05:57:23.107Z,94915.00
2023-03-02T05:58:23.012Z,94917.00
2023-03-02T05:59:23.032Z,94917.00
2023-03-02T06:04:52.259Z,94915.00
2023-03-02T06:09:40.171Z,94927.00
2023-03-02T06:10:39.834Z,94931.00
2023-03-02T06:15:36.294Z,94939.00
2023-03-02T06:17:56.645Z,94946.00
2023-03-02T06:20:21.817Z,94943.00
2023-03-02T06:21:21.768Z,94943.00
2023-03-02T06:22:22.079Z,94939.00
2023-03-02T06:24:40.782Z,94939.00
2023-03-02T06:25:41.021Z,94941.00
2023-03-02T06:26:40.781Z,94943.00
2023-03-02T06:27:40.719Z,94943.00
2023-03-02T06:30:33.542Z,94943.00
2023-03-02T06:31:32.405Z,94948.00
2023-03-02T06:32:32.726Z,94946.00
2023-03-02T06:33:32.402Z,94950.00
2023-03-02T06:34:33.979Z,94948.00
2023-03-02T06:35:32.527Z,94945.00
2023-03-02T06:36:33.910Z,94945.00
2023-03-02T06:37:32.432Z,94948.00
2023-03-02T06:38:32.401Z,94945.00
2023-03-02T06:39:32.342Z,94948.00
2023-03-02T06:40:32.492Z,94952.00
2023-03-02T06:41:32.600Z,94950.00
2023-03-02T06:42:32.327Z,94954.00
2023-03-02T06:43:32.295Z,94956.00
2023-03-02T06:44:32.457Z,94960.00
2023-03-02T06:45:32.468Z,94958.00
2023-03-02T06:47:51.619Z,94958.00
2023-03-02T06:48:52.242Z,94958.00
2023-03-02T06:49:55.569Z,94958.00
2023-03-02T06:57:54.853Z,94958.00
2023-03-02T07:04:29.512Z,94960.00
2023-03-02T08:44:40.804Z,94962.00
2023-03-02T08:45:40.897Z,94958.00
2023-03-02T08:46:40.858Z,94958.00
2023-03-02T08:49:08.903Z,94950.00
2023-03-02T08:51:27.292Z,94948.00
2023-03-02T08:59:42.901Z,94939.00
2023-03-02T09:09:39.526Z,94931.00
2023-03-02T11:11:21.359Z,94827.00
2023-03-02T11:29:39.618Z,94813.00
2023-03-02T11:30:40.038Z,94813.00
2023-03-02T11:33:22.276Z,94809.00
2023-03-02T11:35:22.541Z,94811.00
2023-03-02T11:40:18.475Z,94807.00
2023-03-02T11:50:38.222Z,94793.00
2023-03-02T12:30:26.021Z,94745.00
2023-03-02T12:32:43.126Z,94741.00
2023-03-02T12:33:42.577Z,94739.00
2023-03-02T12:40:48.117Z,94727.00
2023-03-02T13:52:39.521Z,94654.00
2023-03-02T13:53:38.836Z,94660.00
2023-03-02T13:54:38.615Z,94658.00
2023-03-02T13:55:38.931Z,94654.00
2023-03-02T13:56:38.336Z,94652.00
2023-03-02T13:57:38.344Z,94647.00
2023-03-02T13:58:38.987Z,94645.00
2023-03-02T13:59:38.259Z,94645.00
2023-03-02T14:00:38.696Z,94649.00
2023-03-02T14:01:38.405Z,94645.00
2023-03-02T14:02:38.301Z,94645.00
2023-03-02T14:03:38.431Z,94643.00
2023-03-02T14:04:38.489Z,94643.00
2023-03-02T14:05:38.937Z,94641.00
2023-03-02T14:06:38.318Z,94641.00
2023-03-02T14:07:38.481Z,94643.00
2023-03-02T14:08:38.696Z,94643.00
2023-03-02T15:09:44.063Z,94609.00
2023-03-02T15:12:03.936Z,94613.00
2023-03-02T15:13:00.676Z,94615.00
2023-03-02T15:17:46.028Z,94613.00
2023-03-02T15:18:46.355Z,94615.00
2023-03-02T15:19:45.707Z,94613.00
2023-03-02T15:20:45.639Z,94613.00
2023-03-02T15:21:48.226Z,94615.00
2023-03-02T15:22:45.805Z,94617.00
2023-03-02T15:23:45.557Z,94611.00
2023-03-02T15:24:45.571Z,94611.00
2023-03-02T15:25:45.508Z,94611.00
2023-03-02T15:28:46.709Z,94615.00
2023-03-02T15:40:37.308Z,94625.00
2023-03-02T15:41:36.806Z,94623.00
2023-03-02T15:42:36.807Z,94625.00
2023-03-02T15:43:39.289Z,94623.00
2023-03-02T15:54:28.211Z,94637.00
2023-03-02T15:55:28.230Z,94639.00
2023-03-02T16:03:19.383Z,94647.00
2023-03-02T19:14:20.136Z,94917.00
2023-03-02T19:30:13.215Z,94945.00
2023-03-02T19:43:16.424Z,94952.00
2023-03-02T19:44:16.188Z,94954.00
2023-03-02T19:45:16.366Z,94952.00
2023-03-02T20:25:50.319Z,95001.00
2023-03-02T20:26:50.252Z,95001.00
2023-03-02T20:27:50.220Z,95005.00
2023-03-02T20:28:50.194Z,95005.00
2023-03-02T20:29:50.261Z,95005.00
2023-03-02T20:30:50.346Z,95003.00
2023-03-02T20:31:50.213Z,95005.00
2023-03-02T20:32:50.404Z,95003.00
2023-03-02T20:41:09.520Z,95013.00
2023-03-02T20:42:09.209Z,95013.00
2023-03-02T20:43:09.304Z,95015.00
2023-03-02T20:44:09.567Z,95013.00
2023-03-02T20:45:09.329Z,95013.00
2023-03-02T20:46:09.315Z,95017.00
2023-03-02T20:47:09.337Z,95017.00
2023-03-02T20:48:09.348Z,95017.00
2023-03-02T20:49:09.555Z,95017.00
2023-03-02T20:50:09.468Z,95017.00
2023-03-02T20:51:09.518Z,95017.00
2023-03-02T20:52:09.518Z,95019.00
2023-03-02T20:53:09.546Z,95019.00
2023-03-02T20:54:09.595Z,95019.00
2023-03-02T20:55:09.649Z,95023.00
2023-03-02T20:56:09.709Z,95023.00
2023-03-02T20:57:09.713Z,95025.00
2023-03-02T20:58:09.788Z,95025.00
2023-03-02T20:59:09.763Z,95027.00
2023-03-02T21:00:09.842Z,95029.00
2023-03-02T21:01:09.857Z,95031.00
2023-03-02T21:02:09.852Z,95029.00
2023-03-02T21:03:09.956Z,95031.00
2023-03-02T21:04:09.963Z,95035.00
2023-03-02T21:05:10.029Z,95033.00
2023-03-02T21:06:10.036Z,95033.00
2023-03-02T21:07:10.091Z,95033.00
2023-03-02T21:08:10.153Z,95035.00
2023-03-02T21:09:10.134Z,95037.00
2023-03-02T21:10:10.204Z,95035.00
2023-03-02T21:11:10.191Z,95033.00
2023-03-02T21:12:10.259Z,95035.00
2023-03-02T21:13:10.319Z,95035.00
2023-03-02T21:14:10.320Z,95033.00
2023-03-02T21:15:10.382Z,95033.00
2023-03-02T21:20:01.093Z,95037.00
2023-03-02T21:22:19.824Z,95035.00
2023-03-02T21:23:19.934Z,95035.00
2023-03-02T21:24:19.912Z,95035.00
2023-03-02T21:33:16.479Z,95033.00
2023-03-02T21:34:17.420Z,95033.00
2023-03-02T21:35:16.490Z,95033.00
2023-03-02T21:36:16.503Z,95035.00
2023-03-02T21:37:16.482Z,95035.00
2023-03-02T21:38:16.354Z,95035.00
2023-03-02T21:39:16.141Z,95035.00
2023-03-02T21:40:17.308Z,95037.00
2023-03-02T21:41:16.167Z,95037.00
2023-03-02T21:42:16.179Z,95037.00
2023-03-02T21:43:16.391Z,95039.00
2023-03-02T21:44:17.210Z,95039.00
2023-03-02T21:45:16.093Z,95039.00
2023-03-02T22:11:04.365Z,95035.00
2023-03-02T22:12:04.101Z,95033.00
2023-03-02T22:13:04.070Z,95033.00
2023-03-02T22:14:04.185Z,95035.00
2023-03-02T22:15:04.257Z,95033.00
2023-03-02T22:16:04.330Z,95035.00
2023-03-02T22:17:04.182Z,95035.00
2023-03-02T22:18:04.173Z,95035.00
2023-03-02T22:30:33.693Z,95042.00
2023-03-02T22:31:33.749Z,95044.00
2023-03-02T22:32:33.847Z,95044.00
2023-03-02T22:33:33.823Z,95046.00
2023-03-02T22:34:33.837Z,95044.00
2023-03-02T22:35:33.922Z,95046.00
2023-03-02T22:36:33.934Z,95046.00
2023-03-02T22:37:33.997Z,95048.00
2023-03-02T22:38:34.069Z,95048.00
2023-03-02T22:39:34.068Z,95048.00
2023-03-02T22:40:34.149Z,95046.00
2023-03-02T22:41:34.157Z,95046.00
2023-03-02T22:42:34.221Z,95046.00
2023-03-02T22:43:34.279Z,95050.00
2023-03-02T22:44:34.276Z,95048.00
2023-03-02T22:45:34.318Z,95046.00
2023-03-02T22:46:34.356Z,95046.00
2023-03-02T22:47:34.335Z,95048.00
2023-03-02T22:49:34.436Z,95048.00
2023-03-02T23:06:54.536Z,95056.00
2023-03-02T23:07:54.834Z,95060.00
2023-03-02T23:08:54.110Z,95058.00
2023-03-02T23:09:53.986Z,95060.00
2023-03-02T23:10:54.059Z,95058.00
2023-03-02T23:11:54.898Z,95062.00
2023-03-02T23:12:54.251Z,95062.00
2023-03-02T23:13:54.285Z,95064.00
2023-03-02T23:14:53.938Z,95064.00
2023-03-02T23:15:53.836Z,95066.00
2023-03-02T23:16:54.030Z,95066.00
2023-03-02T23:17:54.023Z,95068.00
2023-03-02T23:18:53.983Z,95070.00
2023-03-02T23:19:53.882Z,95072.00
2023-03-02T23:20:54.867Z,95072.00
2023-03-02T23:21:53.862Z,95070.00
2023-03-02T23:22:54.025Z,95072.00
2023-03-02T23:23:53.861Z,95072.00
2023-03-02T23:24:53.894Z,95074.00
2023-03-02T23:28:59.983Z,95080.00
2023-03-02T23:29:59.913Z,95078.00
2023-03-02T23:31:59.679Z,95078.00
2023-03-02T23:34:18.617Z,95078.00
2023-03-02T23:35:18.624Z,95076.00
2023-03-02T23:36:18.340Z,95078.00
2023-03-02T23:37:18.375Z,95078.00
2023-03-02T23:38:18.304Z,95078.00
2023-03-02T23:39:18.320Z,95076.00
2023-03-02T23:40:18.320Z,95078.00
2023-03-02T23:41:18.365Z,95078.00
2023-03-02T23:42:18.260Z,95080.00
2023-03-02T23:43:18.282Z,95078.00
2023-03-02T23:44:18.312Z,95078.00
2023-03-02T23:45:18.413Z,95074.00
2023-03-02T23:46:18.355Z,95076.00
2023-03-02T23:47:18.284Z,95076.00
2023-03-02T23:48:18.237Z,95074.00
2023-03-02T23:49:18.282Z,95074.00
2023-03-02T23:50:18.221Z,95074.00
2023-03-02T23:51:18.187Z,95074.00
2023-03-02T23:52:18.177Z,95074.00
2023-03-02T23:53:18.259Z,95076.00
2023-03-02T23:57:38.531Z,95080.00
